Disclaimer

Please do not use the information listed here in-flight or in-navigation, as they are not provided to us by the airports but are provided by volunteers, so they might be outdated.

Search


Regions


Airport information page

Radio informations:
Tower (TWR) - 118.2 MHz
GCA - 119.1 MHz

Airport informations:
Latitude: 69° 17' 33.00" N
Longitude: 016° 08' 39.00" E
Elevation: 43 feet - 13 meters
Operating hours: Remarks
Operating agency: Military
Timezone: UTC+1(+2DT) - Last Sunday in March to last Sunday in October
Fuel: JP-4, Wide cut turbine fuel MIL Spec T-5624

Runway information:
03/21 - 5486 x 148 feet< - >1672 x 45 meters
14/32 - 8097 x 148 feet< - >2468 x 45 meters

Recent METARs:
ENAN 201350Z 33010KT 290V350 9999 VCSH SCT024 BKN034 03/M01 Q1038
ENAN 201420Z 36008KT 9999 VCSH BKN030 03/M01 Q1038
ENAN 201450Z 35009KT 9999 FEW019 BKN036 03/M01 Q1038

Airport on the map: